createdAt,value
2018-03-21T00:02:04.733Z,23.45
2018-03-21T00:04:33.866Z,28.12
2018-03-21T00:07:03.011Z,24.63
2018-03-21T00:09:32.224Z,24.10
2018-03-21T00:12:01.639Z,30.25
2018-03-21T00:14:31.509Z,26.92
2018-03-21T00:17:00.694Z,18.35
2018-03-21T00:19:29.845Z,16.30
2018-03-21T00:21:58.971Z,20.88
2018-03-21T00:24:28.224Z,21.62
2018-03-21T00:26:57.405Z,26.25
2018-03-21T00:29:26.608Z,24.77
2018-03-21T00:31:55.877Z,31.23
2018-03-21T00:34:25.106Z,30.98
2018-03-21T00:36:54.300Z,28.92
2018-03-21T00:39:23.664Z,27.00
2018-03-21T00:41:52.869Z,30.70
2018-03-21T00:44:22.064Z,31.77
2018-03-21T00:46:51.418Z,31.87
2018-03-21T00:49:20.623Z,27.45
2018-03-21T00:51:49.821Z,29.23
2018-03-21T00:54:19.087Z,24.15
2018-03-21T00:56:48.305Z,24.50
2018-03-21T00:59:24.022Z,26.48
2018-03-21T01:01:53.227Z,21.58
2018-03-21T01:04:22.508Z,40.70
2018-03-21T01:06:51.717Z,28.92
2018-03-21T01:09:21.002Z,33.13
2018-03-21T01:11:50.261Z,27.48
2018-03-21T01:14:19.464Z,28.52
2018-03-21T01:16:48.683Z,23.90
2018-03-21T01:19:17.947Z,21.20
2018-03-21T01:21:47.491Z,21.25
2018-03-21T01:24:16.775Z,21.55
2018-03-21T01:26:46.080Z,19.02
2018-03-21T01:29:15.274Z,22.62
2018-03-21T01:31:44.547Z,17.62
2018-03-21T01:34:13.897Z,22.15
2018-03-21T01:36:42.988Z,20.27
2018-03-21T01:39:12.180Z,20.00
2018-03-21T01:41:41.465Z,18.77
2018-03-21T01:44:10.662Z,20.92
2018-03-21T01:46:39.900Z,21.15
2018-03-21T01:49:09.363Z,18.65
2018-03-21T01:51:38.528Z,17.58
2018-03-21T01:54:07.736Z,17.50
2018-03-21T01:56:37.011Z,17.55
2018-03-21T01:59:06.236Z,16.15
2018-03-21T02:01:36.054Z,17.65
2018-03-21T02:04:05.492Z,14.95
2018-03-21T02:06:34.690Z,16.85
2018-03-21T02:09:03.496Z,17.50
2018-03-21T02:11:32.772Z,17.67
2018-03-21T02:14:01.981Z,15.30
2018-03-21T02:16:31.182Z,16.25
2018-03-21T02:19:00.660Z,16.73
2018-03-21T02:21:29.863Z,26.98
2018-03-21T02:23:59.045Z,19.23
2018-03-21T02:26:28.314Z,31.85
2018-03-21T02:28:57.499Z,17.90
2018-03-21T02:31:26.274Z,30.95
2018-03-21T02:33:55.570Z,23.55
2018-03-21T02:36:24.782Z,30.83
2018-03-21T02:38:54.542Z,44.22
2018-03-21T02:41:23.851Z,26.08
2018-03-21T02:43:53.067Z,20.00
2018-03-21T02:46:22.562Z,19.85
2018-03-21T02:48:51.820Z,27.70
2018-03-21T02:51:20.984Z,18.02
2018-03-21T02:53:50.187Z,17.87
2018-03-21T02:56:20.230Z,15.07
2018-03-21T02:58:49.410Z,15.02
2018-03-21T03:01:18.614Z,15.10
2018-03-21T03:03:48.725Z,17.35
2018-03-21T03:06:17.828Z,15.98
2018-03-21T03:08:47.023Z,16.45
2018-03-21T03:11:16.280Z,16.05
2018-03-21T03:13:45.506Z,13.82
2018-03-21T03:16:14.816Z,16.92
2018-03-21T03:18:44.052Z,17.37
2018-03-21T03:21:13.264Z,15.63
2018-03-21T03:23:42.472Z,17.25
2018-03-21T03:26:11.785Z,16.42
2018-03-21T03:28:40.974Z,14.52
2018-03-21T03:31:10.174Z,14.57
2018-03-21T03:33:39.452Z,13.05
2018-03-21T03:36:08.674Z,23.02
2018-03-21T03:38:37.878Z,15.52
2018-03-21T03:41:07.154Z,17.00
2018-03-21T03:43:36.356Z,17.37
2018-03-21T03:46:05.565Z,11.50
2018-03-21T03:48:35.059Z,13.18
2018-03-21T03:51:04.263Z,16.50
2018-03-21T03:53:33.473Z,17.62
2018-03-21T03:56:02.761Z,12.52
2018-03-21T03:58:31.955Z,17.25
2018-03-21T04:01:01.160Z,17.50
2018-03-21T04:03:31.006Z,24.73
2018-03-21T04:06:00.407Z,15.45
2018-03-21T04:08:29.601Z,17.00
2018-03-21T04:10:59.825Z,17.90
2018-03-21T04:13:29.029Z,20.35
2018-03-21T04:15:58.220Z,17.80
2018-03-21T04:18:28.186Z,20.33
2018-03-21T04:20:57.287Z,16.05
2018-03-21T04:23:26.490Z,16.55
2018-03-21T04:25:55.761Z,16.83
2018-03-21T04:28:24.960Z,15.15
2018-03-21T04:30:54.144Z,14.25
2018-03-21T04:33:23.448Z,17.40
2018-03-21T04:35:52.649Z,16.00
2018-03-21T04:38:22.797Z,16.10
2018-03-21T04:40:52.815Z,16.98
2018-03-21T04:43:21.999Z,17.10
2018-03-21T04:45:51.089Z,16.40
2018-03-21T04:48:21.050Z,22.08
2018-03-21T04:50:51.255Z,20.65
2018-03-21T04:53:20.585Z,20.45
2018-03-21T04:55:49.756Z,34.33
2018-03-21T04:58:18.585Z,27.20
2018-03-21T05:00:47.851Z,22.17
2018-03-21T05:03:17.290Z,17.52
2018-03-21T05:05:46.480Z,15.73
2018-03-21T05:08:16.487Z,18.20
2018-03-21T05:10:45.727Z,23.12
2018-03-21T05:13:14.924Z,25.48
2018-03-21T05:15:44.234Z,22.20
2018-03-21T05:18:13.415Z,21.75
2018-03-21T05:20:42.624Z,15.60
2018-03-21T05:23:11.946Z,20.35
2018-03-21T05:25:42.924Z,19.02
2018-03-21T05:28:12.628Z,17.37
2018-03-21T05:30:41.854Z,21.27
2018-03-21T05:33:11.031Z,20.77
2018-03-21T05:35:40.284Z,19.87
2018-03-21T05:38:09.481Z,15.98
2018-03-21T05:40:38.815Z,22.13
2018-03-21T05:43:08.582Z,17.12
2018-03-21T05:45:37.776Z,17.27
2018-03-21T05:48:07.816Z,19.92
2018-03-21T05:50:37.129Z,19.73
2018-03-21T05:53:06.320Z,20.50
2018-03-21T05:55:35.647Z,24.30
2018-03-21T05:58:04.934Z,21.73
2018-03-21T06:00:34.144Z,21.60
2018-03-21T06:03:03.374Z,25.00
2018-03-21T06:05:32.673Z,24.90
2018-03-21T06:08:01.930Z,22.83
2018-03-21T06:10:31.133Z,36.15
2018-03-21T06:13:00.392Z,37.00
2018-03-21T06:15:29.578Z,41.88
2018-03-21T06:17:58.800Z,43.28
2018-03-21T06:20:28.087Z,20.60
2018-03-21T06:22:57.303Z,23.42
2018-03-21T06:25:26.541Z,23.27
2018-03-21T06:27:55.791Z,20.65
2018-03-21T06:30:25.013Z,24.55
2018-03-21T06:32:54.234Z,16.52
2018-03-21T06:35:23.526Z,19.62
2018-03-21T06:37:54.976Z,21.35
2018-03-21T06:40:24.376Z,16.55
2018-03-21T06:42:53.660Z,20.48
2018-03-21T06:45:22.865Z,19.05
2018-03-21T06:47:52.121Z,16.80
2018-03-21T06:50:21.306Z,24.25
2018-03-21T06:52:50.498Z,21.70
2018-03-21T06:55:19.816Z,19.62
2018-03-21T06:57:49.000Z,23.00
2018-03-21T07:00:18.231Z,26.15
2018-03-21T07:02:48.433Z,33.58
2018-03-21T07:05:18.450Z,20.30
2018-03-21T07:07:47.642Z,16.95
2018-03-21T07:10:16.918Z,17.70
2018-03-21T07:12:46.110Z,19.45
2018-03-21T07:15:26.324Z,19.73
2018-03-21T07:17:55.523Z,17.67
2018-03-21T07:20:24.731Z,16.70
2018-03-21T07:22:54.004Z,14.27
2018-03-21T07:25:23.224Z,15.80
2018-03-21T07:27:52.421Z,14.55
2018-03-21T07:30:22.371Z,12.95
2018-03-21T07:32:51.591Z,11.50
2018-03-21T07:35:20.788Z,10.70
2018-03-21T07:37:50.740Z,13.35
2018-03-21T07:40:20.358Z,17.67
2018-03-21T07:42:49.623Z,23.75
2018-03-21T07:45:18.939Z,9.93
2018-03-21T07:47:48.148Z,15.07
2018-03-21T07:50:17.438Z,14.90
2018-03-21T07:52:46.635Z,12.20
2018-03-21T07:55:15.837Z,13.30
2018-03-21T07:57:45.174Z,12.55
2018-03-21T08:00:14.386Z,14.20
2018-03-21T08:02:43.598Z,19.48
2018-03-21T08:05:12.865Z,25.45
2018-03-21T08:07:42.069Z,16.92
2018-03-21T08:10:11.280Z,19.08
2018-03-21T08:12:40.530Z,11.82
2018-03-21T08:15:09.736Z,11.25
2018-03-21T08:17:38.952Z,11.65
2018-03-21T08:20:08.248Z,13.30
2018-03-21T08:22:37.479Z,13.10
2018-03-21T08:25:06.694Z,19.95
2018-03-21T08:27:36.296Z,37.95
2018-03-21T08:30:05.676Z,33.95
2018-03-21T08:32:34.925Z,13.57
2018-03-21T08:35:04.218Z,13.55
2018-03-21T08:37:33.424Z,8.52
2018-03-21T08:40:02.637Z,9.95
2018-03-21T08:42:31.887Z,8.10
2018-03-21T08:45:01.103Z,8.48
2018-03-21T08:47:30.398Z,8.52
2018-03-21T08:49:59.660Z,30.98
2018-03-21T08:52:28.840Z,17.48
2018-03-21T08:54:58.071Z,17.25
2018-03-21T08:57:27.500Z,98.60
2018-03-21T08:59:56.724Z,13.85
2018-03-21T09:02:25.958Z,9.63
2018-03-21T09:04:55.297Z,18.45
2018-03-21T09:07:25.249Z,31.55
2018-03-21T09:09:54.618Z,58.25
2018-03-21T09:12:23.898Z,15.10
2018-03-21T09:14:53.091Z,12.65
2018-03-21T09:17:22.307Z,11.02
2018-03-21T09:19:51.628Z,16.67
2018-03-21T09:22:20.840Z,16.15
2018-03-21T09:24:50.029Z,9.75
2018-03-21T09:27:19.291Z,16.42
2018-03-21T09:29:48.510Z,11.43
2018-03-21T09:32:17.772Z,33.30
2018-03-21T09:34:47.029Z,28.42
2018-03-21T09:37:16.240Z,14.27
2018-03-21T09:39:45.449Z,31.95
2018-03-21T09:42:14.767Z,16.50
2018-03-21T09:44:43.959Z,11.43
2018-03-21T09:47:13.183Z,20.88
2018-03-21T09:49:42.491Z,47.20
2018-03-21T09:52:11.873Z,20.25
2018-03-21T09:54:44.682Z,16.10
2018-03-21T09:57:13.978Z,20.00
2018-03-21T09:59:43.066Z,18.80
2018-03-21T10:02:12.339Z,12.73
2018-03-21T10:04:41.567Z,14.70
2018-03-21T10:07:10.761Z,13.13
2018-03-21T10:09:40.049Z,16.37
2018-03-21T10:12:09.242Z,12.68
2018-03-21T10:14:38.440Z,6.97
2018-03-21T10:17:07.687Z,8.57
2018-03-21T10:19:36.891Z,7.10
2018-03-21T10:22:06.097Z,8.05
2018-03-21T10:24:35.359Z,7.22
2018-03-21T10:27:04.552Z,10.15
2018-03-21T10:29:33.747Z,6.78
2018-03-21T10:32:02.998Z,12.68
2018-03-21T10:34:32.274Z,7.85
2018-03-21T10:37:01.651Z,7.65
2018-03-21T10:39:30.920Z,9.05
2018-03-21T10:42:00.092Z,3.95
2018-03-21T10:44:29.186Z,9.60
2018-03-21T10:46:58.443Z,4.95
2018-03-21T10:49:28.489Z,5.97
2018-03-21T10:51:57.792Z,9.23
2018-03-21T10:54:27.036Z,7.93
2018-03-21T10:56:56.221Z,9.73
2018-03-21T10:59:25.405Z,6.37
2018-03-21T11:02:00.008Z,8.00
2018-03-21T11:04:29.230Z,4.45
2018-03-21T11:06:58.406Z,3.97
2018-03-21T11:09:27.734Z,4.22
2018-03-21T11:11:57.005Z,5.00
2018-03-21T11:14:26.369Z,5.10
2018-03-21T11:16:55.652Z,4.40
2018-03-21T11:19:24.842Z,4.80
2018-03-21T11:21:54.097Z,4.68
2018-03-21T11:24:23.347Z,3.45
2018-03-21T11:26:52.579Z,6.93
2018-03-21T11:29:21.807Z,7.03
2018-03-21T11:31:51.070Z,7.55
2018-03-21T11:34:20.303Z,5.18
2018-03-21T11:36:49.512Z,7.82
2018-03-21T11:39:18.788Z,5.05
2018-03-21T11:41:47.970Z,7.05
2018-03-21T11:44:17.180Z,7.53
2018-03-21T11:46:46.468Z,8.20
2018-03-21T11:49:15.983Z,5.80
2018-03-21T11:51:45.180Z,4.28
2018-03-21T11:54:14.525Z,4.90
2018-03-21T11:56:43.729Z,5.32
2018-03-21T11:59:12.918Z,5.47
2018-03-21T12:01:42.160Z,4.35
2018-03-21T12:04:11.394Z,7.37
2018-03-21T12:06:40.580Z,4.95
2018-03-21T12:09:09.583Z,4.37
2018-03-21T12:11:39.114Z,5.12
2018-03-21T12:14:08.315Z,10.85
2018-03-21T12:16:43.085Z,17.92
2018-03-21T12:19:12.275Z,9.77
2018-03-21T12:21:41.536Z,5.47
2018-03-21T12:24:10.730Z,4.53
2018-03-21T12:26:39.920Z,9.40
2018-03-21T12:29:09.279Z,7.53
2018-03-21T12:31:38.466Z,5.20
2018-03-21T12:34:07.688Z,11.20
2018-03-21T12:36:36.927Z,6.55
2018-03-21T12:39:05.580Z,4.50
2018-03-21T12:41:34.770Z,8.13
2018-03-21T12:44:04.030Z,20.40
2018-03-21T12:46:32.951Z,5.97
2018-03-21T12:49:02.204Z,5.37
2018-03-21T12:51:31.457Z,9.52
2018-03-21T12:54:00.661Z,7.12
2018-03-21T12:56:29.963Z,8.00
2018-03-21T12:58:59.231Z,12.00
2018-03-21T13:01:29.106Z,17.27
2018-03-21T13:03:58.219Z,6.20
2018-03-21T13:06:27.465Z,6.65
2018-03-21T13:08:57.286Z,61.37
2018-03-21T13:11:26.697Z,22.92
2018-03-21T13:13:55.948Z,16.87
2018-03-21T13:16:25.158Z,8.95
2018-03-21T13:18:54.739Z,15.43
2018-03-21T13:21:24.083Z,12.20
2018-03-21T13:23:53.307Z,5.10
2018-03-21T13:26:22.512Z,4.30
2018-03-21T13:28:51.792Z,7.15
2018-03-21T13:31:20.978Z,7.87
2018-03-21T13:33:50.213Z,5.50
2018-03-21T13:36:19.482Z,4.07
2018-03-21T13:38:48.710Z,8.00
2018-03-21T13:41:18.031Z,6.12
2018-03-21T13:43:47.914Z,5.10
2018-03-21T13:46:17.102Z,7.28
2018-03-21T13:48:47.811Z,8.93
2018-03-21T13:51:17.265Z,13.75
2018-03-21T13:53:46.443Z,5.47
2018-03-21T13:56:15.626Z,7.00
2018-03-21T13:58:44.988Z,8.30
2018-03-21T14:01:14.210Z,6.95
2018-03-21T14:03:43.427Z,8.77
2018-03-21T14:06:13.073Z,5.32
2018-03-21T14:08:42.306Z,6.87
2018-03-21T14:11:11.520Z,4.12
2018-03-21T14:13:40.767Z,7.80
2018-03-21T14:16:09.968Z,10.00
2018-03-21T14:18:39.165Z,5.12
2018-03-21T14:21:08.434Z,10.25
2018-03-21T14:23:37.652Z,15.70
2018-03-21T14:26:06.872Z,6.65
2018-03-21T14:28:36.118Z,6.30
2018-03-21T14:31:05.352Z,5.53
2018-03-21T14:33:34.538Z,4.22
2018-03-21T14:36:03.890Z,3.78
2018-03-21T14:38:33.089Z,6.00
2018-03-21T14:41:02.264Z,4.30
2018-03-21T14:43:32.367Z,6.40
2018-03-21T14:46:01.552Z,4.35
2018-03-21T14:48:30.761Z,5.20
2018-03-21T14:51:00.028Z,3.85
2018-03-21T14:53:29.240Z,6.47
2018-03-21T14:55:58.430Z,5.57
2018-03-21T14:58:28.061Z,7.80
2018-03-21T15:00:57.344Z,15.77
2018-03-21T15:03:26.549Z,5.87
2018-03-21T15:05:55.805Z,6.82
2018-03-21T15:08:24.977Z,5.75
2018-03-21T15:10:54.401Z,6.85
2018-03-21T15:13:23.685Z,10.15
2018-03-21T15:15:53.477Z,6.75
2018-03-21T15:18:22.696Z,39.78
2018-03-21T15:20:52.016Z,12.05
2018-03-21T15:23:21.239Z,17.25
2018-03-21T15:25:50.444Z,10.82
2018-03-21T15:28:19.713Z,8.18
2018-03-21T15:30:48.889Z,14.73
2018-03-21T15:33:18.081Z,8.40
2018-03-21T15:35:47.442Z,16.85
2018-03-21T15:38:16.643Z,9.48
2018-03-21T15:40:45.866Z,8.18
2018-03-21T15:43:15.128Z,7.43
2018-03-21T15:45:44.320Z,10.88
2018-03-21T15:48:13.522Z,13.75
2018-03-21T15:50:42.800Z,13.43
2018-03-21T15:53:12.023Z,11.95
2018-03-21T15:55:41.240Z,9.60
2018-03-21T15:58:10.492Z,6.47
2018-03-21T16:00:39.705Z,9.63
2018-03-21T16:03:09.015Z,9.77
2018-03-21T16:05:38.279Z,7.07
2018-03-21T16:08:07.528Z,11.90
2018-03-21T16:10:36.730Z,5.50
2018-03-21T16:13:06.020Z,9.70
2018-03-21T16:15:35.275Z,42.15
2018-03-21T16:18:04.538Z,51.03
2018-03-21T16:20:33.867Z,148.35
2018-03-21T16:23:03.077Z,218.07
2018-03-21T16:25:32.313Z,25.88
2018-03-21T16:28:01.589Z,25.23
2018-03-21T16:30:30.820Z,11.40
2018-03-21T16:33:00.057Z,7.72
2018-03-21T16:35:29.372Z,8.75
2018-03-21T16:37:58.584Z,5.40
2018-03-21T16:40:27.814Z,7.82
2018-03-21T16:42:56.967Z,11.32
2018-03-21T16:45:26.188Z,14.85
2018-03-21T16:47:55.405Z,23.35
2018-03-21T16:50:24.674Z,8.85
2018-03-21T16:52:53.878Z,5.28
2018-03-21T16:55:23.119Z,5.47
2018-03-21T16:57:52.388Z,6.53
2018-03-21T17:00:21.639Z,4.95
2018-03-21T17:02:50.919Z,8.20
2018-03-21T17:05:20.334Z,6.87
2018-03-21T17:07:49.604Z,102.62
2018-03-21T17:10:18.927Z,124.68
2018-03-21T17:12:48.369Z,24.35
2018-03-21T17:15:17.613Z,11.57
2018-03-21T17:17:46.983Z,19.48
2018-03-21T17:20:16.080Z,38.73
2018-03-21T17:22:45.246Z,42.73
2018-03-21T17:25:14.232Z,26.97
2018-03-21T17:27:43.224Z,21.80
2018-03-21T17:30:12.175Z,15.17
2018-03-21T17:32:41.152Z,13.67
2018-03-21T17:35:10.220Z,10.77
2018-03-21T17:37:39.165Z,10.70
2018-03-21T17:40:08.321Z,15.03
2018-03-21T17:42:37.292Z,30.30
2018-03-21T17:45:06.351Z,165.20
2018-03-21T17:47:35.460Z,186.07
2018-03-21T17:50:04.476Z,119.77
2018-03-21T17:52:33.372Z,34.90
2018-03-21T17:55:02.379Z,33.60
2018-03-21T17:57:31.324Z,30.43
2018-03-21T18:00:00.278Z,29.57
2018-03-21T18:02:29.337Z,31.77
2018-03-21T18:04:58.337Z,43.13
2018-03-21T18:07:27.310Z,39.87
2018-03-21T18:09:56.334Z,49.10
2018-03-21T18:12:25.384Z,48.23
2018-03-21T18:14:54.359Z,69.07
2018-03-21T18:17:23.374Z,55.83
2018-03-21T18:19:52.336Z,55.13
2018-03-21T18:22:21.666Z,51.57
2018-03-21T18:24:51.104Z,55.95
2018-03-21T18:27:20.189Z,61.20
2018-03-21T18:29:49.264Z,58.50
2018-03-21T18:32:18.546Z,60.20
2018-03-21T18:34:47.640Z,61.57
2018-03-21T18:37:16.554Z,59.10
2018-03-21T18:39:45.625Z,59.50
2018-03-21T18:42:14.911Z,59.67
2018-03-21T18:44:43.908Z,55.40
2018-03-21T18:47:13.534Z,59.95
2018-03-21T18:49:42.779Z,164.62
2018-03-21T18:52:11.996Z,127.64
2018-03-21T18:54:41.312Z,127.95
2018-03-21T18:57:10.648Z,67.15
2018-03-21T18:59:39.948Z,63.83
2018-03-21T19:02:09.288Z,54.80
2018-03-21T19:04:38.632Z,58.00
2018-03-21T19:07:07.913Z,51.25
2018-03-21T19:09:37.664Z,38.33
2018-03-21T19:12:08.387Z,36.85
2018-03-21T19:14:39.352Z,35.03
2018-03-21T19:17:10.340Z,30.08
2018-03-21T19:19:42.472Z,23.58
2018-03-21T19:22:12.940Z,26.30
2018-03-21T19:24:43.468Z,23.73
2018-03-21T19:27:15.847Z,26.73
2018-03-21T19:29:45.748Z,21.55
2018-03-21T19:32:16.442Z,23.77
2018-03-21T19:34:47.508Z,24.75
2018-03-21T19:37:18.682Z,29.30
2018-03-21T19:39:49.334Z,28.40
2018-03-21T19:42:20.372Z,26.65
2018-03-21T19:44:51.375Z,26.12
2018-03-21T19:47:22.673Z,22.62
2018-03-21T19:49:53.372Z,26.83
2018-03-21T19:52:24.267Z,27.34
2018-03-21T19:54:55.064Z,20.16
2018-03-21T19:57:25.800Z,24.32
2018-03-21T19:59:56.467Z,23.60
2018-03-21T20:02:27.383Z,21.77
2018-03-21T20:04:58.431Z,22.95
2018-03-21T20:07:29.352Z,28.52
2018-03-21T20:10:00.007Z,31.88
2018-03-21T20:12:30.609Z,28.42
2018-03-21T20:15:01.462Z,27.23
2018-03-21T20:17:31.921Z,27.38
2018-03-21T20:20:02.527Z,30.80
2018-03-21T20:22:33.250Z,26.20
2018-03-21T20:25:04.355Z,25.42
2018-03-21T20:27:35.360Z,28.77
2018-03-21T20:30:06.513Z,27.44
2018-03-21T20:32:36.647Z,29.42
2018-03-21T20:35:07.480Z,26.00
2018-03-21T20:37:38.382Z,30.42
2018-03-21T20:40:09.450Z,24.83
2018-03-21T20:42:40.312Z,26.05
2018-03-21T20:45:11.513Z,29.37
2018-03-21T20:47:42.522Z,28.87
2018-03-21T20:50:14.081Z,32.95
2018-03-21T20:52:44.896Z,33.62
2018-03-21T20:55:15.455Z,35.72
2018-03-21T20:57:46.246Z,34.13
2018-03-21T21:00:16.940Z,32.64
2018-03-21T21:02:47.622Z,29.34
2018-03-21T21:05:18.441Z,32.28
2018-03-21T21:07:49.368Z,33.22
2018-03-21T21:10:21.010Z,37.97
2018-03-21T21:12:51.861Z,38.68
2018-03-21T21:15:22.783Z,37.65
2018-03-21T21:17:53.338Z,42.20
2018-03-21T21:20:24.884Z,39.45
2018-03-21T21:22:55.381Z,40.90
2018-03-21T21:25:26.252Z,47.36
2018-03-21T21:27:56.866Z,43.66
2018-03-21T21:30:28.775Z,36.85
2018-03-21T21:32:58.893Z,40.45
2018-03-21T21:35:29.657Z,40.67
2018-03-21T21:38:00.413Z,36.72
2018-03-21T21:40:30.949Z,39.60
2018-03-21T21:43:01.368Z,40.08
2018-03-21T21:45:32.432Z,48.38
2018-03-21T21:48:02.813Z,45.88
2018-03-21T21:50:33.690Z,45.85
2018-03-21T21:53:04.345Z,42.92
2018-03-21T21:55:35.328Z,36.78
2018-03-21T21:58:06.371Z,35.97
2018-03-21T22:00:37.236Z,34.75
2018-03-21T22:03:08.176Z,32.10
2018-03-21T22:05:39.201Z,37.00
2018-03-21T22:08:10.154Z,37.70
2018-03-21T22:10:41.223Z,40.95
2018-03-21T22:13:12.197Z,33.92
2018-03-21T22:15:43.211Z,37.10
2018-03-21T22:18:14.155Z,38.22
2018-03-21T22:20:45.156Z,33.55
2018-03-21T22:23:16.185Z,37.10
2018-03-21T22:25:47.195Z,40.10
2018-03-21T22:28:18.111Z,34.65
2018-03-21T22:30:49.144Z,43.70
2018-03-21T22:33:20.305Z,45.53
2018-03-21T22:35:51.372Z,42.55
2018-03-21T22:38:22.744Z,50.50
2018-03-21T22:40:52.477Z,46.63
2018-03-21T22:43:23.288Z,50.00
2018-03-21T22:45:55.527Z,53.30
2018-03-21T22:48:25.591Z,46.08
2018-03-21T22:50:56.351Z,44.13
2018-03-21T22:53:27.324Z,49.33
2018-03-21T22:55:58.343Z,48.28
2018-03-21T22:58:29.306Z,46.37
2018-03-21T23:01:00.307Z,40.70
2018-03-21T23:03:31.317Z,37.83
2018-03-21T23:06:02.358Z,36.88
2018-03-21T23:08:32.913Z,34.30
2018-03-21T23:11:03.883Z,33.46
2018-03-21T23:13:34.462Z,34.26
2018-03-21T23:16:05.403Z,33.28
2018-03-21T23:18:36.251Z,35.15
2018-03-21T23:21:06.900Z,34.10
2018-03-21T23:23:38.518Z,39.00
2018-03-21T23:26:09.284Z,41.03
2018-03-21T23:28:40.244Z,42.88
2018-03-21T23:31:11.780Z,44.96
2018-03-21T23:33:42.300Z,41.65
2018-03-21T23:36:13.343Z,37.85
2018-03-21T23:38:44.216Z,42.92
2018-03-21T23:41:15.223Z,41.35
2018-03-21T23:43:46.175Z,40.72
2018-03-21T23:46:17.310Z,39.72
2018-03-21T23:48:48.207Z,39.80
2018-03-21T23:51:19.242Z,44.30
2018-03-21T23:53:50.188Z,35.30
2018-03-21T23:56:21.603Z,37.55
2018-03-21T23:58:51.889Z,38.52
